Time;durP1;ratioP1;P1;durP2;ratioP2;P2;SDS_P1;SDS_P2;PMS_P1;PMS_P2;Temp;Humidity;BMP_temperature;BMP_pressure;BME280_temperature;BME280_humidity;BME280_pressure;Samples;Min_cycle;Max_cycle;Signal;HPM_P1;HPM_P2
2021/04/16 00:01:41;;;;;;;0.93;0.80;;;;;;;;;;5016785;28;20192;-41
2021/04/16 00:04:07;;;;;;;0.80;0.80;;;;;;;;;;5017328;28;20169;-41
2021/04/16 00:06:33;;;;;;;0.80;0.80;;;;;;;;;;5028283;28;20221;-41
2021/04/16 00:08:59;;;;;;;0.65;0.65;;;;;;;;;;5029316;28;20573;-41
2021/04/16 00:11:26;;;;;;;0.60;0.60;;;;;;;;;;5021137;28;20243;-41
2021/04/16 00:13:52;;;;;;;0.70;0.70;;;;;;;;;;5023688;28;20210;-41
2021/04/16 00:16:20;;;;;;;0.70;0.70;;;;;;;;;;5017033;28;20172;-41
2021/04/16 00:18:46;;;;;;;0.70;0.70;;;;;;;;;;5017007;28;20201;-41
2021/04/16 00:21:12;;;;;;;0.80;0.80;;;;;;;;;;5016374;28;20168;-41
2021/04/16 00:23:39;;;;;;;0.60;0.60;;;;;;;;;;5021586;28;20183;-41
2021/04/16 00:26:05;;;;;;;1.20;0.70;;;;;;;;;;5033040;28;20273;-41
2021/04/16 00:28:32;;;;;;;0.90;0.90;;;;;;;;;;5017620;28;20180;-41
2021/04/16 00:31:06;;;;;;;0.75;0.75;;;;;;;;;;5024841;28;20217;-41
2021/04/16 00:33:32;;;;;;;0.88;0.88;;;;;;;;;;5035601;28;20186;-41
2021/04/16 00:35:58;;;;;;;1.25;0.85;;;;;;;;;;5033043;28;20175;-41
2021/04/16 00:38:25;;;;;;;0.82;0.82;;;;;;;;;;5054357;28;20442;-41
2021/04/16 00:40:53;;;;;;;0.60;0.60;;;;;;;;;;5027133;28;20172;-41
2021/04/16 00:43:20;;;;;;;0.70;0.70;;;;;;;;;;5017689;28;20185;-41
2021/04/16 00:45:46;;;;;;;1.02;0.70;;;;;;;;;;5025706;28;20180;-41
2021/04/16 00:48:27;;;;;;;0.80;0.80;;;;;;;;;;5027870;28;20190;-42
2021/04/16 00:50:55;;;;;;;0.65;0.65;;;;;;;;;;5035773;28;20630;-42
2021/04/16 00:53:21;;;;;;;0.73;0.73;;;;;;;;;;5033143;28;20172;-42
2021/04/16 00:55:48;;;;;;;0.60;0.52;;;;;;;;;;5017190;28;20467;-42
2021/04/16 00:58:14;;;;;;;0.60;0.60;;;;;;;;;;5019805;28;20176;-42
2021/04/16 01:00:42;;;;;;;1.02;0.90;;;;;;;;;;5028682;28;20242;-42
2021/04/16 01:03:08;;;;;;;0.68;0.60;;;;;;;;;;5034775;28;20177;-42
2021/04/16 01:05:34;;;;;;;0.70;0.70;;;;;;;;;;5016058;28;20463;-42
2021/04/16 01:08:00;;;;;;;0.93;0.60;;;;;;;;;;5035156;28;20259;-42
2021/04/16 01:10:27;;;;;;;0.60;0.60;;;;;;;;;;5031597;28;20176;-42
2021/04/16 01:12:53;;;;;;;0.50;0.50;;;;;;;;;;5028493;28;20185;-42
2021/04/16 01:15:28;;;;;;;0.70;0.70;;;;;;;;;;5028809;28;20629;-42
2021/04/16 01:17:55;;;;;;;0.50;0.50;;;;;;;;;;5024719;28;20180;-42
2021/04/16 01:20:26;;;;;;;1.13;0.60;;;;;;;;;;5032513;28;20493;-42
2021/04/16 01:22:58;;;;;;;0.50;0.50;;;;;;;;;;5035273;28;20174;-41
2021/04/16 01:25:25;;;;;;;0.60;0.60;;;;;;;;;;5024144;28;20206;-41
2021/04/16 01:27:51;;;;;;;0.57;0.57;;;;;;;;;;5032959;28;20222;-41
2021/04/16 01:30:19;;;;;;;0.40;0.40;;;;;;;;;;5028220;28;20266;-41
2021/04/16 01:32:45;;;;;;;0.50;0.50;;;;;;;;;;5054460;28;20175;-41
2021/04/16 01:35:13;;;;;;;0.70;0.70;;;;;;;;;;5023700;28;20344;-41
2021/04/16 01:37:39;;;;;;;0.50;0.50;;;;;;;;;;5017935;28;20192;-41
2021/04/16 01:40:06;;;;;;;0.50;0.50;;;;;;;;;;5015562;28;20205;-41
2021/04/16 01:42:32;;;;;;;0.60;0.60;;;;;;;;;;5020916;28;20574;-41
2021/04/16 01:44:58;;;;;;;0.50;0.50;;;;;;;;;;5026886;28;20264;-41
2021/04/16 01:47:24;;;;;;;0.50;0.50;;;;;;;;;;5017942;28;20195;-41
2021/04/16 01:49:52;;;;;;;0.70;0.70;;;;;;;;;;5015268;28;20256;-41
2021/04/16 01:52:23;;;;;;;0.55;0.55;;;;;;;;;;5014805;28;20184;-41
2021/04/16 01:54:51;;;;;;;0.60;0.60;;;;;;;;;;5018846;28;20184;-41
2021/04/16 01:57:19;;;;;;;0.60;0.60;;;;;;;;;;5023693;28;20177;-41
2021/04/16 01:59:46;;;;;;;0.50;0.50;;;;;;;;;;5026776;28;20223;-41
2021/04/16 02:02:14;;;;;;;0.55;0.55;;;;;;;;;;5044956;28;20278;-41
2021/04/16 02:04:41;;;;;;;0.65;0.63;;;;;;;;;;5039408;28;20494;-41
2021/04/16 02:07:10;;;;;;;0.85;0.70;;;;;;;;;;5054620;28;20178;-42
2021/04/16 02:09:37;;;;;;;0.63;0.50;;;;;;;;;;5020905;28;20192;-41
2021/04/16 02:12:04;;;;;;;0.60;0.60;;;;;;;;;;5015367;28;20267;-41
2021/04/16 02:14:31;;;;;;;0.43;0.43;;;;;;;;;;5017443;28;20208;-41
2021/04/16 02:16:59;;;;;;;0.55;0.50;;;;;;;;;;5016326;28;20211;-41
2021/04/16 02:19:25;;;;;;;0.70;0.70;;;;;;;;;;5034379;28;20231;-41
2021/04/16 02:21:52;;;;;;;0.50;0.50;;;;;;;;;;5034229;28;20182;-42
2021/04/16 02:24:18;;;;;;;0.40;0.40;;;;;;;;;;5033025;28;20491;-42
2021/04/16 02:26:44;;;;;;;0.52;0.50;;;;;;;;;;5011421;28;20438;-42
2021/04/16 02:29:12;;;;;;;0.70;0.60;;;;;;;;;;5020296;28;20187;-42
2021/04/16 02:31:45;;;;;;;0.73;0.73;;;;;;;;;;5020386;28;20186;-42
2021/04/16 02:34:12;;;;;;;0.50;0.50;;;;;;;;;;5017181;28;20191;-42
2021/04/16 02:36:38;;;;;;;0.60;0.60;;;;;;;;;;5027278;28;20192;-42
2021/04/16 02:39:05;;;;;;;0.45;0.45;;;;;;;;;;5017598;28;20208;-42
2021/04/16 02:41:31;;;;;;;0.40;0.40;;;;;;;;;;5019239;28;20204;-42
2021/04/16 02:43:57;;;;;;;0.40;0.40;;;;;;;;;;5018007;28;20215;-42
2021/04/16 02:46:23;;;;;;;0.40;0.40;;;;;;;;;;5020796;28;20183;-42
2021/04/16 02:48:49;;;;;;;0.50;0.50;;;;;;;;;;5021292;28;20234;-42
2021/04/16 02:51:15;;;;;;;0.40;0.40;;;;;;;;;;5014199;28;20246;-42
2021/04/16 02:53:41;;;;;;;0.45;0.45;;;;;;;;;;5019081;28;20191;-42
2021/04/16 02:56:07;;;;;;;0.43;0.43;;;;;;;;;;5027921;28;20180;-42
2021/04/16 02:58:33;;;;;;;0.40;0.40;;;;;;;;;;5020706;28;20255;-42
2021/04/16 03:00:59;;;;;;;0.55;0.55;;;;;;;;;;5033143;28;20231;-42
2021/04/16 03:03:25;;;;;;;0.40;0.40;;;;;;;;;;5022795;28;20180;-42
2021/04/16 03:05:52;;;;;;;0.68;0.68;;;;;;;;;;5033739;28;20190;-42
2021/04/16 03:08:18;;;;;;;0.57;0.57;;;;;;;;;;5037981;28;20172;-42
2021/04/16 03:10:44;;;;;;;0.75;0.40;;;;;;;;;;5026753;28;20176;-42
2021/04/16 03:13:10;;;;;;;0.60;0.60;;;;;;;;;;5036320;28;20168;-42
2021/04/16 03:15:36;;;;;;;0.43;0.43;;;;;;;;;;5027594;28;20184;-42
2021/04/16 03:18:03;;;;;;;0.50;0.50;;;;;;;;;;5018099;28;20164;-42
2021/04/16 03:20:29;;;;;;;0.63;0.63;;;;;;;;;;5017619;28;20200;-42
2021/04/16 03:22:55;;;;;;;0.40;0.40;;;;;;;;;;5018052;28;20191;-42
2021/04/16 03:25:21;;;;;;;0.47;0.47;;;;;;;;;;5028909;28;20176;-42
2021/04/16 03:27:47;;;;;;;0.60;0.60;;;;;;;;;;5037859;28;20168;-41
2021/04/16 03:30:16;;;;;;;0.45;0.45;;;;;;;;;;5036246;28;20468;-41
2021/04/16 03:32:42;;;;;;;0.50;0.50;;;;;;;;;;5056999;28;20171;-42
2021/04/16 03:35:09;;;;;;;0.60;0.60;;;;;;;;;;5047262;28;20184;-41
2021/04/16 03:37:36;;;;;;;0.90;0.60;;;;;;;;;;5031390;28;20184;-42
2021/04/16 03:40:02;;;;;;;0.63;0.43;;;;;;;;;;5017417;28;20232;-42
2021/04/16 03:42:28;;;;;;;0.50;0.50;;;;;;;;;;5017261;28;20272;-42
2021/04/16 03:44:54;;;;;;;0.70;0.68;;;;;;;;;;5028365;28;20254;-42
2021/04/16 03:47:20;;;;;;;0.50;0.50;;;;;;;;;;5023323;28;20246;-42
2021/04/16 03:49:46;;;;;;;0.57;0.57;;;;;;;;;;5028127;28;20839;-42
2021/04/16 03:52:13;;;;;;;0.50;0.50;;;;;;;;;;5036775;28;20183;-42
2021/04/16 03:54:39;;;;;;;0.50;0.50;;;;;;;;;;5030090;28;20185;-42
2021/04/16 03:57:09;;;;;;;0.63;0.63;;;;;;;;;;5018357;28;20184;-42
2021/04/16 03:59:35;;;;;;;0.70;0.70;;;;;;;;;;5032671;28;20200;-42
2021/04/16 04:02:01;;;;;;;0.52;0.52;;;;;;;;;;5022005;28;20463;-42
2021/04/16 04:04:27;;;;;;;0.57;0.57;;;;;;;;;;5026702;28;20180;-41
2021/04/16 04:06:53;;;;;;;0.70;0.70;;;;;;;;;;5032400;28;20184;-41
2021/04/16 04:09:21;;;;;;;0.68;0.60;;;;;;;;;;5036853;28;20182;-42
2021/04/16 04:11:47;;;;;;;0.60;0.60;;;;;;;;;;5029538;28;20606;-42
2021/04/16 04:14:13;;;;;;;0.60;0.60;;;;;;;;;;5024144;28;20227;-42
2021/04/16 04:16:53;;;;;;;0.50;0.50;;;;;;;;;;5037258;28;20539;-42
2021/04/16 04:19:20;;;;;;;0.50;0.50;;;;;;;;;;5036372;28;20191;-42
2021/04/16 04:21:46;;;;;;;0.60;0.60;;;;;;;;;;5019427;28;20287;-42
2021/04/16 04:24:12;;;;;;;0.60;0.60;;;;;;;;;;5023261;28;20213;-41
2021/04/16 04:26:38;;;;;;;0.60;0.60;;;;;;;;;;5025440;28;20189;-41
2021/04/16 04:29:04;;;;;;;0.60;0.60;;;;;;;;;;5022326;28;20196;-42
2021/04/16 04:31:30;;;;;;;0.60;0.60;;;;;;;;;;5016059;28;20207;-42
2021/04/16 04:33:56;;;;;;;0.60;0.60;;;;;;;;;;5018871;28;20560;-42
2021/04/16 04:36:22;;;;;;;0.50;0.50;;;;;;;;;;5016523;28;20203;-42
2021/04/16 04:38:52;;;;;;;0.60;0.60;;;;;;;;;;5016570;28;20724;-42
2021/04/16 04:41:19;;;;;;;0.60;0.60;;;;;;;;;;5020204;28;20184;-42
2021/04/16 04:43:45;;;;;;;0.68;0.68;;;;;;;;;;5019915;28;20188;-42
2021/04/16 04:46:11;;;;;;;0.70;0.70;;;;;;;;;;5031732;28;20211;-42
2021/04/16 04:48:37;;;;;;;0.50;0.50;;;;;;;;;;5028177;28;20262;-42
2021/04/16 04:51:03;;;;;;;0.75;0.75;;;;;;;;;;5015773;28;20568;-42
2021/04/16 04:53:30;;;;;;;0.68;0.63;;;;;;;;;;5022742;28;20176;-42
2021/04/16 04:55:56;;;;;;;0.60;0.60;;;;;;;;;;5023581;28;20547;-42
2021/04/16 04:58:22;;;;;;;0.55;0.55;;;;;;;;;;5028482;28;20180;-42
2021/04/16 05:00:48;;;;;;;0.60;0.60;;;;;;;;;;5026609;28;20515;-42
2021/04/16 05:03:14;;;;;;;0.70;0.70;;;;;;;;;;5000595;28;20242;-42
2021/04/16 05:05:39;;;;;;;0.70;0.70;;;;;;;;;;5017197;28;20183;-41
2021/04/16 05:08:06;;;;;;;0.52;0.52;;;;;;;;;;5020972;28;20262;-42
2021/04/16 05:10:32;;;;;;;1.02;0.80;;;;;;;;;;5025526;28;20180;-42
2021/04/16 05:12:57;;;;;;;0.50;0.50;;;;;;;;;;5026143;28;20187;-42
2021/04/16 05:15:24;;;;;;;0.75;0.75;;;;;;;;;;5022321;28;20219;-41
2021/04/16 05:17:51;;;;;;;0.80;0.80;;;;;;;;;;5022089;28;20180;-42
2021/04/16 05:20:17;;;;;;;0.98;0.70;;;;;;;;;;5049025;28;20449;-41
2021/04/16 05:22:44;;;;;;;0.60;0.60;;;;;;;;;;5023155;28;20195;-41
2021/04/16 05:25:10;;;;;;;0.70;0.70;;;;;;;;;;5015488;28;20255;-41
2021/04/16 05:27:36;;;;;;;0.80;0.70;;;;;;;;;;5015748;28;20169;-41
2021/04/16 05:30:03;;;;;;;0.50;0.50;;;;;;;;;;5021826;28;20186;-42
2021/04/16 05:32:29;;;;;;;0.63;0.63;;;;;;;;;;5017358;28;20204;-42
2021/04/16 05:34:55;;;;;;;2.05;0.90;;;;;;;;;;4998423;28;20172;-42
2021/04/16 05:37:21;;;;;;;0.80;0.80;;;;;;;;;;5016590;28;20194;-42
2021/04/16 05:39:50;;;;;;;2.63;0.70;;;;;;;;;;5031590;28;20257;-42
2021/04/16 05:42:16;;;;;;;0.75;0.70;;;;;;;;;;5024659;28;20565;-42
2021/04/16 05:44:42;;;;;;;0.80;0.77;;;;;;;;;;5024064;28;20180;-42
2021/04/16 05:47:08;;;;;;;1.83;0.80;;;;;;;;;;5022547;28;20555;-42
2021/04/16 05:49:34;;;;;;;1.92;0.80;;;;;;;;;;5020754;28;20548;-43
2021/04/16 05:52:00;;;;;;;2.80;1.40;;;;;;;;;;5021714;28;20207;-45
2021/04/16 05:54:27;;;;;;;4.43;1.35;;;;;;;;;;5022588;28;20242;-48
2021/04/16 05:56:53;;;;;;;5.00;1.70;;;;;;;;;;5021121;28;20203;-44
2021/04/16 05:59:19;;;;;;;6.75;1.95;;;;;;;;;;5029082;28;20207;-44
2021/04/16 06:01:45;;;;;;;6.25;1.90;;;;;;;;;;5014593;28;20192;-42
2021/04/16 06:04:16;;;;;;;5.75;2.35;;;;;;;;;;5015339;28;20774;-42
2021/04/16 06:06:42;;;;;;;7.28;2.47;;;;;;;;;;5029179;28;20559;-45
2021/04/16 06:09:08;;;;;;;9.93;2.60;;;;;;;;;;5041504;28;20189;-48
2021/04/16 06:11:34;;;;;;;9.38;2.53;;;;;;;;;;5017016;28;20262;-44
2021/04/16 06:14:00;;;;;;;5.13;2.28;;;;;;;;;;5033160;28;20290;-44
2021/04/16 06:16:26;;;;;;;7.45;2.40;;;;;;;;;;5017794;28;20192;-45
2021/04/16 06:18:52;;;;;;;7.18;2.55;;;;;;;;;;5014039;28;20258;-44
2021/04/16 06:21:18;;;;;;;5.50;2.05;;;;;;;;;;5012661;28;20168;-44
2021/04/16 06:23:44;;;;;;;7.85;2.78;;;;;;;;;;5014850;28;20173;-44
2021/04/16 06:26:10;;;;;;;9.63;2.60;;;;;;;;;;5014912;28;20196;-44
2021/04/16 06:28:36;;;;;;;12.50;2.53;;;;;;;;;;5017561;28;20187;-44
2021/04/16 06:31:02;;;;;;;5.68;2.45;;;;;;;;;;5016517;28;20251;-44
2021/04/16 06:33:30;;;;;;;8.57;2.50;;;;;;;;;;5027022;28;20482;-44
2021/04/16 06:36:00;;;;;;;7.20;2.40;;;;;;;;;;5025807;28;20180;-44
2021/04/16 06:38:29;;;;;;;8.00;2.75;;;;;;;;;;5023203;28;20180;-44
2021/04/16 06:40:56;;;;;;;9.82;2.47;;;;;;;;;;5020394;28;20559;-44
2021/04/16 06:43:24;;;;;;;7.95;2.25;;;;;;;;;;5018744;28;20607;-44
2021/04/16 06:45:51;;;;;;;5.60;2.63;;;;;;;;;;5020459;28;20230;-44
2021/04/16 06:48:18;;;;;;;6.07;2.53;;;;;;;;;;5038597;28;20176;-44
2021/04/16 06:50:44;;;;;;;7.40;2.42;;;;;;;;;;5037986;28;20204;-44
2021/04/16 06:53:26;;;;;;;5.38;2.20;;;;;;;;;;5041297;28;20234;-44
2021/04/16 06:55:55;;;;;;;6.55;2.38;;;;;;;;;;5050201;28;20186;-44
2021/04/16 06:58:25;;;;;;;9.73;2.50;;;;;;;;;;5032962;28;20203;-44
2021/04/16 07:00:54;;;;;;;4.60;2.20;;;;;;;;;;5031198;28;20191;-44
2021/04/16 07:03:24;;;;;;;6.13;2.33;;;;;;;;;;5029922;28;20267;-44
2021/04/16 07:06:01;;;;;;;5.80;2.08;;;;;;;;;;5018172;28;20181;-44
2021/04/16 07:08:40;;;;;;;5.75;2.38;;;;;;;;;;5002283;28;20188;-44
2021/04/16 07:11:23;;;;;;;4.85;2.05;;;;;;;;;;5032529;28;20498;-44
2021/04/16 07:13:49;;;;;;;4.97;2.28;;;;;;;;;;5026217;28;20223;-44
2021/04/16 07:16:15;;;;;;;4.68;2.42;;;;;;;;;;5055676;28;20262;-44
2021/04/16 07:18:42;;;;;;;4.97;1.98;;;;;;;;;;5044571;28;20171;-44
2021/04/16 07:21:09;;;;;;;6.57;2.35;;;;;;;;;;5044493;28;20437;-44
2021/04/16 07:23:43;;;;;;;3.88;1.80;;;;;;;;;;5021408;28;20180;-44
2021/04/16 07:26:24;;;;;;;3.85;2.08;;;;;;;;;;5028243;28;20204;-43
2021/04/16 07:28:52;;;;;;;4.63;1.88;;;;;;;;;;5028398;28;20184;-43
2021/04/16 07:31:32;;;;;;;4.10;1.90;;;;;;;;;;5025461;28;20175;-44
2021/04/16 07:33:59;;;;;;;4.80;2.05;;;;;;;;;;5030925;28;20167;-44
2021/04/16 07:36:31;;;;;;;4.93;2.30;;;;;;;;;;5025367;28;20287;-44
2021/04/16 07:39:05;;;;;;;3.05;2.10;;;;;;;;;;5023563;28;20478;-44
2021/04/16 07:41:45;;;;;;;4.32;1.90;;;;;;;;;;5002179;28;20618;-44
2021/04/16 07:44:28;;;;;;;4.25;1.80;;;;;;;;;;5033265;28;20187;-44
2021/04/16 07:46:58;;;;;;;4.93;1.88;;;;;;;;;;5026369;28;20294;-44
2021/04/16 07:49:28;;;;;;;3.15;2.03;;;;;;;;;;5017619;28;20188;-44
2021/04/16 07:51:57;;;;;;;3.05;2.00;;;;;;;;;;5016718;28;20255;-44
2021/04/16 07:54:22;;;;;;;3.47;1.90;;;;;;;;;;5026597;28;20177;-44
2021/04/16 07:56:49;;;;;;;5.43;2.35;;;;;;;;;;5025989;28;20171;-44
2021/04/16 07:59:17;;;;;;;2.35;2.15;;;;;;;;;;5036483;28;20218;-44
2021/04/16 08:01:43;;;;;;;5.55;2.50;;;;;;;;;;5056390;28;20229;-44
2021/04/16 08:04:12;;;;;;;4.68;2.38;;;;;;;;;;5056994;28;20186;-44
2021/04/16 08:06:42;;;;;;;4.95;2.53;;;;;;;;;;5056600;28;20187;-44
2021/04/16 08:09:26;;;;;;;3.65;2.10;;;;;;;;;;5026185;28;20563;-44
2021/04/16 08:12:13;;;;;;;3.25;2.20;;;;;;;;;;5016433;28;20181;-44
2021/04/16 08:14:41;;;;;;;3.42;2.30;;;;;;;;;;5017139;28;20303;-44
2021/04/16 08:17:13;;;;;;;4.20;2.50;;;;;;;;;;5030765;28;20199;-44
2021/04/16 08:19:39;;;;;;;4.25;2.60;;;;;;;;;;5036858;28;20242;-44
2021/04/16 08:22:12;;;;;;;3.70;2.10;;;;;;;;;;5034283;28;20199;-44
2021/04/16 08:24:54;;;;;;;4.05;2.47;;;;;;;;;;5036825;28;20164;-44
2021/04/16 08:27:20;;;;;;;3.88;2.60;;;;;;;;;;5036428;28;20195;-44
2021/04/16 08:30:09;;;;;;;2.97;2.20;;;;;;;;;;5036664;28;20175;-44
2021/04/16 08:32:38;;;;;;;3.38;2.25;;;;;;;;;;5022631;28;20192;-44
2021/04/16 08:35:07;;;;;;;4.22;2.60;;;;;;;;;;5026855;28;20231;-44
2021/04/16 08:37:37;;;;;;;3.85;2.47;;;;;;;;;;5016625;28;20282;-44
2021/04/16 08:40:05;;;;;;;5.10;2.15;;;;;;;;;;5016327;28;20223;-44
2021/04/16 08:42:33;;;;;;;3.70;2.30;;;;;;;;;;5016101;28;20222;-44
2021/04/16 08:45:01;;;;;;;3.03;2.00;;;;;;;;;;5016531;28;20188;-44
2021/04/16 08:47:36;;;;;;;3.17;2.08;;;;;;;;;;5025526;28;20194;-44
2021/04/16 08:50:04;;;;;;;5.25;2.25;;;;;;;;;;5017367;28;20489;-44
2021/04/16 08:52:32;;;;;;;2.58;2.03;;;;;;;;;;5021290;28;20761;-44
2021/04/16 08:55:09;;;;;;;3.10;2.00;;;;;;;;;;5015955;28;20548;-44
2021/04/16 08:57:40;;;;;;;3.55;2.20;;;;;;;;;;5022894;28;20214;-44
2021/04/16 09:00:15;;;;;;;2.58;1.77;;;;;;;;;;5034022;28;20184;-44
2021/04/16 09:02:48;;;;;;;3.45;2.30;;;;;;;;;;5015528;28;20267;-44
2021/04/16 09:05:18;;;;;;;2.30;2.10;;;;;;;;;;5020506;28;20184;-44
2021/04/16 09:08:07;;;;;;;3.22;1.75;;;;;;;;;;5020918;28;20215;-44
2021/04/16 09:10:44;;;;;;;7.63;2.13;;;;;;;;;;5015512;28;20210;-43
2021/04/16 09:13:31;;;;;;;14.32;2.22;;;;;;;;;;5020388;28;20191;-41
2021/04/16 09:16:17;;;;;;;9.98;2.85;;;;;;;;;;4999426;28;20439;-43
2021/04/16 09:18:43;;;;;;;5.32;2.38;;;;;;;;;;5036569;28;20562;-43
2021/04/16 09:21:21;;;;;;;6.82;2.20;;;;;;;;;;5026700;28;20231;-42
2021/04/16 09:23:47;;;;;;;3.65;2.00;;;;;;;;;;5023031;28;20463;-45
2021/04/16 09:26:34;;;;;;;2.88;2.10;;;;;;;;;;5018164;28;20200;-44
2021/04/16 09:29:00;;;;;;;5.47;1.80;;;;;;;;;;5002744;28;20214;-44
2021/04/16 09:31:26;;;;;;;7.60;2.30;;;;;;;;;;5025552;28;20176;-44
2021/04/16 09:34:19;;;;;;;5.40;2.25;;;;;;;;;;5035455;28;20201;-45
2021/04/16 09:36:47;;;;;;;2.15;1.85;;;;;;;;;;5030550;28;20215;-47
2021/04/16 09:39:16;;;;;;;4.20;2.00;;;;;;;;;;5018673;28;20242;-45
2021/04/16 09:41:44;;;;;;;4.82;1.90;;;;;;;;;;5016814;28;20220;-44
2021/04/16 09:44:28;;;;;;;3.85;2.00;;;;;;;;;;5028449;28;20208;-42
2021/04/16 09:47:05;;;;;;;3.45;1.98;;;;;;;;;;5027448;28;20209;-42
2021/04/16 09:49:31;;;;;;;5.32;1.90;;;;;;;;;;5028190;28;20187;-42
2021/04/16 09:51:58;;;;;;;9.70;2.35;;;;;;;;;;5028560;28;20442;-43
2021/04/16 09:54:34;;;;;;;8.65;2.67;;;;;;;;;;5019826;28;20211;-43
2021/04/16 09:57:03;;;;;;;5.68;2.20;;;;;;;;;;5016032;28;20210;-44
2021/04/16 09:59:32;;;;;;;5.55;2.45;;;;;;;;;;5016621;28;20246;-43
2021/04/16 10:02:13;;;;;;;3.60;2.72;;;;;;;;;;5019727;28;20169;-44
2021/04/16 10:04:57;;;;;;;4.70;2.63;;;;;;;;;;5035085;28;20183;-41
2021/04/16 10:07:32;;;;;;;7.85;3.00;;;;;;;;;;5034677;28;20247;-44
2021/04/16 10:12:15;;;;;;;4.47;3.28;;;;;;;;;;5091896;28;20486;-42
2021/04/16 10:14:41;;;;;;;5.68;3.50;;;;;;;;;;5062062;28;20167;-40
2021/04/16 10:17:16;;;;;;;5.95;3.47;;;;;;;;;;5065104;28;20616;-44
2021/04/16 10:19:47;;;;;;;7.82;3.63;;;;;;;;;;5054333;28;20266;-41
2021/04/16 10:22:17;;;;;;;7.22;3.00;;;;;;;;;;5051632;28;20167;-42
2021/04/16 12:40:20;;;;;;;7.40;2.28;;;;;;;;;;5034621;28;20195;-42
2021/04/16 12:42:47;;;;;;;9.82;2.47;;;;;;;;;;5019296;28;20176;-42
2021/04/16 12:45:13;;;;;;;7.88;2.17;;;;;;;;;;5032939;28;20210;-42
2021/04/16 12:47:39;;;;;;;9.00;2.40;;;;;;;;;;5019303;28;20206;-42
2021/04/16 12:50:06;;;;;;;10.38;2.20;;;;;;;;;;5023175;28;20203;-42
2021/04/16 12:52:32;;;;;;;4.25;1.85;;;;;;;;;;5035021;28;20179;-43
2021/04/16 12:54:58;;;;;;;9.07;2.13;;;;;;;;;;5030731;28;20574;-43
2021/04/16 12:57:42;;;;;;;10.88;2.47;;;;;;;;;;5029000;28;20211;-43
2021/04/16 13:00:29;;;;;;;8.48;2.30;;;;;;;;;;5022269;28;20255;-42
2021/04/16 13:02:58;;;;;;;4.10;2.28;;;;;;;;;;5032895;28;20180;-42
2021/04/16 13:05:24;;;;;;;5.55;2.17;;;;;;;;;;5034581;28;20188;-42
2021/04/16 13:07:50;;;;;;;10.77;3.03;;;;;;;;;;5035175;28;20187;-43
2021/04/16 13:10:17;;;;;;;5.75;2.25;;;;;;;;;;5035298;28;20628;-42
2021/04/16 13:12:44;;;;;;;4.80;2.22;;;;;;;;;;5034704;28;20172;-42
2021/04/16 13:15:10;;;;;;;6.93;2.20;;;;;;;;;;5035098;28;20188;-42
2021/04/16 13:17:38;;;;;;;2.75;2.00;;;;;;;;;;5035469;28;20654;-42
2021/04/16 13:20:04;;;;;;;3.63;1.88;;;;;;;;;;5034567;28;20199;-42
2021/04/16 13:22:30;;;;;;;6.88;2.28;;;;;;;;;;5034493;28;20182;-42
2021/04/16 13:24:56;;;;;;;7.57;2.40;;;;;;;;;;5033953;28;20180;-42
2021/04/16 13:27:27;;;;;;;6.60;2.50;;;;;;;;;;5024038;28;20180;-43
2021/04/16 13:29:54;;;;;;;4.35;2.30;;;;;;;;;;5034111;28;20616;-42
2021/04/16 13:32:21;;;;;;;6.63;2.25;;;;;;;;;;5033096;28;20180;-42
2021/04/16 13:34:48;;;;;;;6.68;2.30;;;;;;;;;;5017098;28;20180;-42
2021/04/16 13:37:18;;;;;;;5.75;2.53;;;;;;;;;;5033275;28;20180;-42
2021/04/16 13:39:44;;;;;;;6.97;2.03;;;;;;;;;;5034511;28;20559;-42
2021/04/16 13:42:10;;;;;;;4.18;2.30;;;;;;;;;;5028515;28;20188;-42
2021/04/16 13:44:37;;;;;;;4.00;2.17;;;;;;;;;;5024043;28;20270;-42
2021/04/16 13:47:04;;;;;;;3.63;2.20;;;;;;;;;;5023393;28;20199;-42
2021/04/16 13:49:37;;;;;;;6.60;2.10;;;;;;;;;;5015538;28;20194;-42
2021/04/16 13:52:03;;;;;;;3.38;2.40;;;;;;;;;;5031517;28;20471;-42
2021/04/16 13:54:30;;;;;;;3.85;2.28;;;;;;;;;;5033624;28;20195;-42
2021/04/16 13:56:56;;;;;;;2.97;2.20;;;;;;;;;;5034113;28;20180;-42
2021/04/16 13:59:24;;;;;;;4.15;2.10;;;;;;;;;;5034681;28;20561;-42
2021/04/16 14:01:50;;;;;;;5.20;2.80;;;;;;;;;;5032964;28;20501;-42
2021/04/16 14:04:24;;;;;;;3.10;2.67;;;;;;;;;;5034175;28;20237;-42
2021/04/16 14:06:50;;;;;;;4.40;3.03;;;;;;;;;;5034036;28;20222;-42
2021/04/16 14:09:17;;;;;;;3.95;2.78;;;;;;;;;;5033484;28;20191;-42
2021/04/16 14:11:43;;;;;;;3.30;3.00;;;;;;;;;;5032864;28;20206;-42
2021/04/16 14:14:25;;;;;;;3.35;3.05;;;;;;;;;;5034815;28;20156;-42
2021/04/16 14:16:52;;;;;;;3.45;2.90;;;;;;;;;;5026087;28;20206;-42
2021/04/16 14:19:18;;;;;;;4.55;3.28;;;;;;;;;;5034279;28;20180;-42
2021/04/16 14:21:46;;;;;;;5.07;3.47;;;;;;;;;;5033492;28;20257;-42
2021/04/16 14:24:12;;;;;;;5.93;3.10;;;;;;;;;;5033782;28;20211;-42
2021/04/16 14:26:39;;;;;;;4.50;3.20;;;;;;;;;;5034572;28;20271;-42
2021/04/16 14:29:05;;;;;;;5.50;3.22;;;;;;;;;;5034434;28;20558;-42
2021/04/16 14:31:31;;;;;;;3.13;2.85;;;;;;;;;;5032663;28;20226;-42
2021/04/16 14:33:57;;;;;;;5.10;3.13;;;;;;;;;;5032180;28;20184;-42
2021/04/16 14:36:23;;;;;;;6.05;2.95;;;;;;;;;;5032867;28;20204;-42
2021/04/16 14:38:50;;;;;;;6.03;3.05;;;;;;;;;;5033512;28;20674;-42
2021/04/16 14:41:20;;;;;;;4.18;3.15;;;;;;;;;;5033028;28;20624;-42
2021/04/16 14:43:46;;;;;;;3.33;2.67;;;;;;;;;;5033782;28;20179;-42
2021/04/16 14:46:12;;;;;;;9.43;3.33;;;;;;;;;;5023159;28;20191;-42
2021/04/16 14:48:38;;;;;;;9.60;2.72;;;;;;;;;;5033443;28;20266;-42
2021/04/16 14:51:06;;;;;;;7.15;3.00;;;;;;;;;;5033130;28;20204;-42
2021/04/16 14:53:41;;;;;;;9.63;3.33;;;;;;;;;;5033237;28;20168;-42
2021/04/16 14:56:08;;;;;;;5.28;2.30;;;;;;;;;;5033298;28;20187;-42
2021/04/16 14:58:45;;;;;;;5.10;2.70;;;;;;;;;;5036444;28;20262;-42
2021/04/16 15:01:12;;;;;;;8.50;2.80;;;;;;;;;;5033946;28;20214;-42
2021/04/16 15:03:38;;;;;;;5.15;2.50;;;;;;;;;;5037539;28;20190;-43
2021/04/16 15:06:06;;;;;;;6.72;2.75;;;;;;;;;;5037389;28;20423;-42
2021/04/16 15:08:46;;;;;;;4.47;2.88;;;;;;;;;;5031771;28;20212;-42
2021/04/16 15:11:14;;;;;;;6.50;3.13;;;;;;;;;;5026107;28;20218;-42
2021/04/16 15:13:40;;;;;;;6.75;2.70;;;;;;;;;;5036236;28;20180;-42
2021/04/16 15:16:08;;;;;;;3.47;2.83;;;;;;;;;;5037201;28;20180;-42
2021/04/16 15:18:34;;;;;;;4.75;2.78;;;;;;;;;;5037046;28;20271;-42
2021/04/16 15:21:01;;;;;;;10.10;2.80;;;;;;;;;;5036020;28;20184;-41
2021/04/16 15:23:27;;;;;;;4.85;2.40;;;;;;;;;;5035220;28;20274;-41
2021/04/16 15:25:55;;;;;;;10.60;3.10;;;;;;;;;;5036953;28;20267;-41
2021/04/16 15:28:21;;;;;;;5.97;2.47;;;;;;;;;;5036003;28;20273;-41
2021/04/16 15:30:51;;;;;;;5.40;2.63;;;;;;;;;;5034619;28;20203;-41
2021/04/16 15:33:19;;;;;;;4.53;2.70;;;;;;;;;;5033357;28;20180;-41
2021/04/16 15:47:03;;;;;;;3.28;2.28;;;;;;;;;;5037112;28;20292;-41
2021/04/16 15:49:29;;;;;;;7.68;2.80;;;;;;;;;;5017446;28;20210;-41
2021/04/16 15:51:56;;;;;;;5.00;2.72;;;;;;;;;;5020671;28;20212;-41
2021/04/16 15:54:22;;;;;;;4.05;2.40;;;;;;;;;;5032645;28;20172;-41
2021/04/16 15:56:49;;;;;;;3.13;2.75;;;;;;;;;;5036548;28;20203;-41
2021/04/16 15:59:18;;;;;;;2.95;2.55;;;;;;;;;;5036764;28;20172;-41
2021/04/16 16:01:44;;;;;;;3.83;2.25;;;;;;;;;;5035774;28;20171;-41
2021/04/16 16:04:11;;;;;;;2.55;2.35;;;;;;;;;;5036848;28;20176;-41
2021/04/16 16:06:37;;;;;;;3.28;2.72;;;;;;;;;;5035934;28;20222;-41
2021/04/16 16:09:04;;;;;;;7.45;3.35;;;;;;;;;;5036218;28;20266;-41
2021/04/16 16:11:45;;;;;;;3.47;2.72;;;;;;;;;;5036045;28;20565;-42
2021/04/16 16:14:13;;;;;;;2.92;2.60;;;;;;;;;;5036435;28;20176;-41
2021/04/16 16:16:42;;;;;;;3.38;2.55;;;;;;;;;;5036356;28;20176;-41
2021/04/16 16:19:09;;;;;;;3.65;2.50;;;;;;;;;;5033471;28;20510;-43
2021/04/16 16:21:35;;;;;;;6.22;2.90;;;;;;;;;;5035792;28;20184;-42
2021/04/16 16:24:01;;;;;;;3.33;2.88;;;;;;;;;;5035666;28;20681;-41
2021/04/16 16:26:35;;;;;;;2.70;2.50;;;;;;;;;;5036327;28;20265;-42
2021/04/16 16:29:04;;;;;;;3.20;2.60;;;;;;;;;;5036463;28;20360;-41
2021/04/16 16:31:32;;;;;;;3.33;2.53;;;;;;;;;;5035230;28;20212;-41
2021/04/16 16:33:58;;;;;;;8.18;3.33;;;;;;;;;;5036374;28;20254;-41
2021/04/16 16:36:24;;;;;;;7.80;3.50;;;;;;;;;;5034451;28;20258;-41
2021/04/16 16:38:50;;;;;;;9.07;3.80;;;;;;;;;;5035687;28;20175;-41
2021/04/16 16:41:16;;;;;;;7.43;3.53;;;;;;;;;;5035286;28;20237;-41
2021/04/16 16:43:44;;;;;;;5.10;4.20;;;;;;;;;;5034756;28;20168;-41
2021/04/16 16:46:12;;;;;;;6.85;4.50;;;;;;;;;;5021029;28;20261;-41
2021/04/16 16:48:38;;;;;;;6.10;4.05;;;;;;;;;;5035799;28;20195;-41
2021/04/16 16:51:06;;;;;;;5.78;4.40;;;;;;;;;;5034843;28;20335;-41
2021/04/16 16:53:32;;;;;;;5.32;3.85;;;;;;;;;;5032579;28;20204;-41
2021/04/16 16:55:58;;;;;;;6.53;3.90;;;;;;;;;;5035662;28;21530;-41
2021/04/16 16:58:32;;;;;;;6.78;3.97;;;;;;;;;;5035828;28;20443;-41
2021/04/16 17:01:00;;;;;;;4.65;3.70;;;;;;;;;;5034917;28;20191;-41
2021/04/16 17:03:26;;;;;;;5.78;4.18;;;;;;;;;;5035665;28;20178;-41
2021/04/16 17:05:53;;;;;;;7.38;3.67;;;;;;;;;;5035486;28;20306;-41
2021/04/16 17:08:19;;;;;;;7.38;3.58;;;;;;;;;;5034868;28;20184;-41
2021/04/16 17:10:45;;;;;;;5.13;3.63;;;;;;;;;;5027465;28;20222;-41
2021/04/16 17:13:12;;;;;;;4.53;3.03;;;;;;;;;;5035219;28;20171;-41
2021/04/16 17:15:43;;;;;;;4.75;3.45;;;;;;;;;;5034248;28;20179;-41
2021/04/16 17:18:10;;;;;;;4.47;3.35;;;;;;;;;;5035037;28;20180;-41
2021/04/16 17:20:36;;;;;;;4.07;2.97;;;;;;;;;;5033381;28;20449;-41